Time;durP1;ratioP1;P1;durP2;ratioP2;P2;SDS_P1;SDS_P2;PMS_P1;PMS_P2;Temp;Humidity;BMP_temperature;BMP_pressure;BME280_temperature;BME280_humidity;BME280_pressure;Samples;Min_cycle;Max_cycle;Signal;HPM_P1;HPM_P2
2022/10/02 00:01:59;;;;;;;8.02;1.58;;;14.60;1.00;;;;;;5092577;28;20489;-54
2022/10/02 00:04:47;;;;;;;6.13;1.20;;;14.60;1.00;;;;;;5092885;28;20433;-54
2022/10/02 00:07:15;;;;;;;6.30;1.15;;;14.60;1.00;;;;;;5092151;28;20461;-54
2022/10/02 00:09:45;;;;;;;5.97;1.40;;;14.70;1.00;;;;;;5092158;28;20844;-55
2022/10/02 00:12:15;;;;;;;7.75;1.30;;;14.80;1.00;;;;;;5091986;28;20447;-55
2022/10/02 00:14:43;;;;;;;9.20;2.10;;;14.80;1.00;;;;;;5092321;28;20385;-55
2022/10/02 00:17:17;;;;;;;7.07;1.50;;;14.70;1.00;;;;;;5092054;28;20417;-55
2022/10/02 00:19:43;;;;;;;7.77;1.90;;;14.60;4.40;;;;;;5092499;28;20378;-55
2022/10/02 00:22:30;;;;;;;9.80;1.67;;;14.50;53.10;;;;;;5091695;28;20911;-55
2022/10/02 00:25:16;;;;;;;6.00;1.47;;;14.30;97.50;;;;;;5091724;28;20737;-54
2022/10/02 00:28:05;;;;;;;6.90;1.70;;;14.30;99.90;;;;;;5092165;28;20401;-54
2022/10/02 00:30:46;;;;;;;8.68;2.40;;;14.20;99.90;;;;;;5091946;28;20382;-54
2022/10/02 00:33:39;;;;;;;8.23;1.80;;;14.10;99.90;;;;;;5091995;28;20432;-54
2022/10/02 00:36:29;;;;;;;6.80;2.00;;;14.00;99.90;;;;;;5107385;28;20781;-55
2022/10/02 00:39:03;;;;;;;12.25;1.80;;;14.10;99.90;;;;;;5091551;28;20431;-55
2022/10/02 00:41:47;;;;;;;4.55;1.30;;;14.10;99.90;;;;;;5091703;28;20394;-55
2022/10/02 00:44:26;;;;;;;9.80;2.10;;;14.10;99.90;;;;;;5091009;28;20392;-55
2022/10/02 00:47:28;;;;;;;7.22;1.50;;;14.00;99.90;;;;;;5092147;28;20500;-55
2022/10/02 00:50:15;;;;;;;8.55;1.50;;;13.90;99.90;;;;;;5091968;28;20447;-56
2022/10/02 00:52:50;;;;;;;7.75;2.10;;;13.90;99.90;;;;;;5091590;28;20448;-55
2022/10/02 00:55:33;;;;;;;6.65;1.77;;;13.80;99.90;;;;;;5089873;28;20718;-54
2022/10/02 00:58:17;;;;;;;6.88;1.70;;;13.90;99.90;;;;;;5091573;28;20455;-55
2022/10/02 01:00:53;;;;;;;8.20;1.83;;;13.90;99.90;;;;;;5091207;28;20394;-55
2022/10/02 01:03:51;;;;;;;7.90;1.90;;;13.90;99.90;;;;;;5091179;28;20451;-54
2022/10/02 01:06:18;;;;;;;8.45;1.95;;;13.90;99.90;;;;;;5091075;28;20380;-55
2022/10/02 01:08:43;;;;;;;6.57;1.60;;;14.00;99.90;;;;;;5091590;28;20377;-55
2022/10/02 01:11:09;;;;;;;7.45;1.77;;;14.00;99.90;;;;;;5090108;28;20406;-55
2022/10/02 01:13:35;;;;;;;6.80;1.93;;;14.00;99.90;;;;;;5090853;28;20792;-55
2022/10/02 01:16:01;;;;;;;7.18;2.00;;;14.00;99.90;;;;;;5090729;28;20413;-57
2022/10/02 01:18:29;;;;;;;7.50;1.83;;;14.00;99.90;;;;;;5090626;28;20416;-55
2022/10/02 01:21:20;;;;;;;7.32;1.60;;;13.90;99.90;;;;;;5091050;28;20381;-55
2022/10/02 01:24:01;;;;;;;6.95;1.77;;;14.00;99.90;;;;;;5079579;28;20426;-55
2022/10/02 01:26:27;;;;;;;7.77;1.77;;;14.00;99.90;;;;;;5091694;28;20761;-55
2022/10/02 01:28:52;;;;;;;8.45;2.05;;;13.90;99.90;;;;;;5091090;28;20450;-55
2022/10/02 01:31:19;;;;;;;5.93;1.43;;;13.90;99.90;;;;;;5089505;28;20899;-55
2022/10/02 01:33:47;;;;;;;6.45;2.10;;;13.90;99.90;;;;;;5091140;28;20373;-55
2022/10/02 01:36:15;;;;;;;9.50;2.10;;;13.90;99.90;;;;;;5090018;28;20439;-55
2022/10/02 01:38:41;;;;;;;11.05;1.70;;;13.80;99.90;;;;;;5090779;28;20391;-54
2022/10/02 01:41:11;;;;;;;6.97;1.70;;;14.00;99.90;;;;;;5090331;28;20378;-55
2022/10/02 01:43:54;;;;;;;7.47;1.70;;;13.90;99.90;;;;;;5090495;28;20411;-54
2022/10/02 01:46:42;;;;;;;7.00;1.65;;;13.90;99.90;;;;;;5089924;28;20655;-55
2022/10/02 01:49:29;;;;;;;8.27;1.42;;;13.90;99.90;;;;;;5089656;28;20915;-55
2022/10/02 01:52:00;;;;;;;10.18;2.50;;;13.90;99.90;;;;;;5090426;28;20432;-54
2022/10/02 01:54:58;;;;;;;8.00;2.20;;;13.90;99.90;;;;;;5090330;28;20397;-54
2022/10/02 01:57:53;;;;;;;9.77;2.20;;;14.00;99.90;;;;;;5089116;28;20416;-55
2022/10/02 02:00:24;;;;;;;5.57;1.70;;;14.00;99.90;;;;;;5071660;28;20871;-56
2022/10/02 02:03:20;;;;;;;6.10;1.63;;;14.00;99.90;;;;;;5090526;28;20722;-55
2022/10/02 02:05:55;;;;;;;10.32;2.22;;;14.20;99.90;;;;;;5089769;28;20447;-55
2022/10/02 02:08:35;;;;;;;6.90;1.90;;;14.10;99.90;;;;;;5089874;28;21154;-55
2022/10/02 02:11:14;;;;;;;6.53;1.75;;;14.00;99.90;;;;;;5090187;28;20405;-57
2022/10/02 02:13:58;;;;;;;5.45;1.50;;;14.10;99.90;;;;;;5090428;28;20422;-55
2022/10/02 02:16:26;;;;;;;5.90;1.48;;;14.10;99.90;;;;;;5089709;28;20370;-56
2022/10/02 02:18:57;;;;;;;7.40;1.85;;;14.10;99.90;;;;;;5090097;28;20472;-55
2022/10/02 02:21:41;;;;;;;5.90;1.50;;;14.10;99.90;;;;;;5089869;28;20409;-55
2022/10/02 02:24:14;;;;;;;7.82;1.88;;;14.10;99.90;;;;;;5089278;28;20370;-55
2022/10/02 02:26:42;;;;;;;5.72;1.30;;;14.20;99.90;;;;;;5090430;28;20366;-55
2022/10/02 02:29:09;;;;;;;8.23;1.92;;;14.20;99.90;;;;;;5089084;28;20427;-55
2022/10/02 02:31:46;;;;;;;5.20;1.52;;;14.20;99.90;;;;;;5089304;28;20753;-55
2022/10/02 02:34:16;;;;;;;6.30;1.70;;;14.20;99.90;;;;;;5089553;28;20427;-55
2022/10/02 02:36:45;;;;;;;10.65;1.80;;;14.30;99.90;;;;;;5089896;28;20418;-55
2022/10/02 02:39:22;;;;;;;6.90;1.70;;;14.30;99.90;;;;;;5089063;28;20374;-55
2022/10/02 02:41:54;;;;;;;6.45;1.70;;;14.30;99.90;;;;;;5089867;28;20390;-55
2022/10/02 02:44:27;;;;;;;8.40;2.00;;;14.30;99.90;;;;;;5089282;28;20835;-56
2022/10/02 02:47:23;;;;;;;8.90;2.20;;;14.40;99.90;;;;;;5089407;28;20786;-56
2022/10/02 02:50:05;;;;;;;7.80;1.85;;;14.40;99.90;;;;;;5090083;28;20461;-56
2022/10/02 02:52:44;;;;;;;7.30;1.60;;;14.40;99.90;;;;;;5090084;28;20406;-56
2022/10/02 02:55:18;;;;;;;8.90;1.70;;;14.30;99.90;;;;;;5088934;28;20452;-56
2022/10/02 02:57:57;;;;;;;6.93;2.10;;;14.30;99.90;;;;;;5089936;28;20414;-56
2022/10/02 03:00:24;;;;;;;6.40;1.70;;;14.20;99.90;;;;;;5089236;28;20474;-55
2022/10/02 03:02:53;;;;;;;7.85;2.03;;;14.30;99.90;;;;;;5089750;28;20370;-56
2022/10/02 03:05:20;;;;;;;7.20;2.53;;;14.30;99.90;;;;;;5088460;28;20417;-56
2022/10/02 03:07:53;;;;;;;7.65;1.50;;;14.30;99.90;;;;;;5071522;28;20770;-56
2022/10/02 03:10:43;;;;;;;8.38;1.70;;;14.30;99.90;;;;;;5089309;28;20378;-56
2022/10/02 03:13:15;;;;;;;10.10;2.13;;;14.30;99.90;;;;;;5089142;28;20519;-55
2022/10/02 03:15:40;;;;;;;6.25;1.90;;;14.20;99.90;;;;;;5089645;28;20398;-55
2022/10/02 03:18:38;;;;;;;6.57;2.40;;;14.30;99.90;;;;;;5090241;28;20382;-55
2022/10/02 03:21:29;;;;;;;7.75;2.00;;;14.30;99.90;;;;;;5093194;28;20374;-55
2022/10/02 03:24:25;;;;;;;10.85;2.65;;;14.30;99.90;;;;;;5092703;28;20393;-55
2022/10/02 03:27:01;;;;;;;11.90;2.10;;;14.30;99.90;;;;;;5093491;28;20660;-55
2022/10/02 03:30:01;;;;;;;8.30;2.13;;;14.40;99.90;;;;;;5092341;28;20389;-55
2022/10/02 03:32:27;;;;;;;7.03;1.77;;;14.30;99.90;;;;;;5092107;28;20447;-55
2022/10/02 03:34:55;;;;;;;6.30;2.00;;;14.30;99.90;;;;;;5092934;28;20847;-55
2022/10/02 03:37:23;;;;;;;7.40;1.80;;;14.40;99.90;;;;;;5092691;28;20370;-55
2022/10/02 03:39:50;;;;;;;9.17;1.90;;;14.40;99.90;;;;;;5093459;28;20435;-55
2022/10/02 03:42:20;;;;;;;8.57;1.75;;;14.40;99.90;;;;;;5092065;28;20420;-55
2022/10/02 03:44:45;;;;;;;5.40;1.60;;;14.30;99.90;;;;;;5092791;28;20770;-55
2022/10/02 03:47:11;;;;;;;9.97;2.10;;;14.20;99.90;;;;;;5092047;28;20401;-55
2022/10/02 03:49:37;;;;;;;8.13;1.77;;;14.20;99.90;;;;;;5092406;28;20431;-55
2022/10/02 03:52:02;;;;;;;9.53;2.47;;;14.30;99.90;;;;;;5092428;28;20413;-56
2022/10/02 03:54:32;;;;;;;9.20;2.40;;;14.20;99.90;;;;;;5092225;28;20390;-55
2022/10/02 03:57:03;;;;;;;8.20;2.63;;;14.20;99.90;;;;;;5093111;28;20377;-55
2022/10/02 03:59:37;;;;;;;6.40;1.67;;;14.90;99.90;;;;;;5092693;28;20874;-55
2022/10/02 04:02:20;;;;;;;8.55;2.10;;;14.30;99.90;;;;;;5092790;28;20403;-56
2022/10/02 04:04:52;;;;;;;7.72;2.15;;;15.30;99.90;;;;;;5092818;28;20457;-55
2022/10/02 04:07:24;;;;;;;10.52;2.30;;;14.30;99.90;;;;;;5091950;28;20409;-55
2022/10/02 04:10:14;;;;;;;7.57;2.00;;;14.30;99.90;;;;;;5092781;28;20453;-55
2022/10/02 04:12:46;;;;;;;6.55;1.77;;;14.40;99.90;;;;;;5092716;28;20409;-55
2022/10/02 04:15:14;;;;;;;9.33;2.30;;;14.40;99.90;;;;;;5091381;28;20366;-55
2022/10/02 04:17:46;;;;;;;10.10;1.90;;;14.40;99.90;;;;;;5092117;28;20414;-55
2022/10/02 04:20:44;;;;;;;4.70;1.55;;;14.30;99.90;;;;;;5091427;28;20371;-55
2022/10/02 04:23:22;;;;;;;8.60;1.83;;;14.30;99.90;;;;;;5090691;28;20390;-55
2022/10/02 04:25:57;;;;;;;8.65;2.03;;;14.30;99.90;;;;;;5092058;28;20464;-55
2022/10/02 04:28:30;;;;;;;7.43;2.10;;;14.30;99.90;;;;;;5090882;28;20417;-55
2022/10/02 04:30:56;;;;;;;7.60;1.80;;;14.40;99.90;;;;;;5091581;28;20425;-55
2022/10/02 04:33:24;;;;;;;9.00;2.10;;;14.30;99.90;;;;;;5091243;28;20462;-54
2022/10/02 04:36:08;;;;;;;7.55;2.05;;;14.20;99.90;;;;;;5091961;28;20378;-55
2022/10/02 04:38:46;;;;;;;8.27;1.90;;;14.10;99.90;;;;;;5091429;28;20406;-55
2022/10/02 04:41:21;;;;;;;7.20;2.17;;;14.20;99.90;;;;;;5091136;28;20370;-55
2022/10/02 04:44:01;;;;;;;10.32;2.30;;;14.20;99.90;;;;;;5092009;28;20414;-55
2022/10/02 04:46:27;;;;;;;10.20;2.40;;;14.10;99.90;;;;;;5091607;28;20530;-55
2022/10/02 04:49:06;;;;;;;8.33;1.60;;;14.00;99.90;;;;;;5091430;28;20861;-55
2022/10/02 04:51:43;;;;;;;7.97;2.17;;;13.90;99.90;;;;;;5090842;28;20491;-55
2022/10/02 04:54:34;;;;;;;9.52;2.10;;;14.00;99.90;;;;;;5090789;28;20386;-55
2022/10/02 04:57:23;;;;;;;9.00;2.20;;;14.00;99.90;;;;;;5091665;28;20388;-55
2022/10/02 05:00:08;;;;;;;6.63;1.90;;;14.00;99.90;;;;;;5090259;28;20405;-55
2022/10/02 05:02:39;;;;;;;6.43;1.80;;;14.00;99.90;;;;;;5091186;28;20424;-55
2022/10/02 05:05:13;;;;;;;7.13;2.10;;;14.10;99.90;;;;;;5091535;28;20855;-56
2022/10/02 05:08:06;;;;;;;10.93;3.45;;;14.20;99.90;;;;;;5091209;28;20374;-55
2022/10/02 05:10:50;;;;;;;9.82;2.30;;;14.30;99.90;;;;;;5091154;28;20707;-55
2022/10/02 05:13:41;;;;;;;7.22;1.73;;;14.30;99.90;;;;;;5090313;28;20366;-55
2022/10/02 05:16:33;;;;;;;7.10;1.50;;;14.50;99.90;;;;;;5090261;28;20761;-57
2022/10/02 05:19:35;;;;;;;10.10;2.23;;;14.60;99.90;;;;;;5091377;28;20373;-55
2022/10/02 05:22:01;;;;;;;5.80;1.60;;;14.60;99.90;;;;;;5090629;28;20390;-55
2022/10/02 05:24:29;;;;;;;8.93;2.10;;;14.70;99.90;;;;;;5089885;28;20386;-55
2022/10/02 05:27:09;;;;;;;7.97;2.28;;;14.80;99.90;;;;;;5090698;28;20382;-55
2022/10/02 05:29:53;;;;;;;9.70;1.90;;;14.80;99.90;;;;;;5090552;28;20457;-55
2022/10/02 05:32:36;;;;;;;7.93;2.10;;;14.70;99.90;;;;;;5089837;28;20449;-55
2022/10/02 05:35:11;;;;;;;9.50;2.00;;;14.40;99.90;;;;;;5090996;28;20417;-55
2022/10/02 05:37:55;;;;;;;8.40;1.85;;;14.30;99.90;;;;;;5091382;28;20370;-55
2022/10/02 05:40:32;;;;;;;12.82;3.25;;;14.20;99.90;;;;;;5089527;28;20454;-55
2022/10/02 05:43:05;;;;;;;8.57;3.40;;;14.30;99.90;;;;;;5090718;28;20874;-55
2022/10/02 05:45:39;;;;;;;9.38;2.40;;;14.50;99.90;;;;;;5090596;28;20374;-55
2022/10/02 05:48:27;;;;;;;7.70;2.10;;;14.40;99.90;;;;;;5090035;28;20461;-56
2022/10/02 05:50:59;;;;;;;9.70;2.00;;;14.30;99.90;;;;;;5090250;28;20496;-55
2022/10/02 05:53:35;;;;;;;10.30;2.17;;;14.30;99.90;;;;;;5089887;28;20839;-55
2022/10/02 05:56:14;;;;;;;9.45;2.22;;;14.30;99.90;;;;;;5090374;28;20370;-55
2022/10/02 05:58:52;;;;;;;12.48;2.63;;;14.30;99.90;;;;;;5090363;28;20381;-55
2022/10/02 06:01:21;;;;;;;8.20;2.07;;;14.30;99.90;;;;;;5089878;28;20789;-55
2022/10/02 06:04:00;;;;;;;9.98;2.15;;;14.40;99.90;;;;;;5087380;28;20425;-55
2022/10/02 06:06:34;;;;;;;7.72;2.10;;;14.30;99.90;;;;;;5084326;28;20477;-55
2022/10/02 06:09:17;;;;;;;9.67;3.07;;;14.20;99.90;;;;;;5090379;28;20751;-55
2022/10/02 06:11:54;;;;;;;8.80;1.90;;;14.30;99.90;;;;;;5069633;28;20457;-55
2022/10/02 06:14:32;;;;;;;6.75;1.70;;;14.30;99.90;;;;;;5078915;28;20385;-55
2022/10/02 06:17:12;;;;;;;6.82;1.65;;;14.30;99.90;;;;;;5090006;28;20439;-55
2022/10/02 06:19:56;;;;;;;8.43;1.70;;;14.40;99.90;;;;;;5089660;28;20417;-54
2022/10/02 06:22:29;;;;;;;16.65;2.90;;;14.40;99.90;;;;;;5089523;28;20390;-55
2022/10/02 06:25:04;;;;;;;8.43;2.83;;;14.20;99.90;;;;;;5089714;28;20370;-55
2022/10/02 06:27:58;;;;;;;9.80;3.20;;;14.30;99.90;;;;;;5089263;28;20389;-55
2022/10/02 06:30:23;;;;;;;9.07;2.65;;;14.30;99.90;;;;;;5088942;28;20823;-55
2022/10/02 06:32:54;;;;;;;10.53;2.63;;;14.20;99.90;;;;;;5090034;28;20394;-55
2022/10/02 06:35:47;;;;;;;7.27;1.90;;;14.20;99.90;;;;;;5089115;28;20851;-55
2022/10/02 06:38:21;;;;;;;10.10;2.55;;;14.20;99.90;;;;;;5089406;28;20378;-56
2022/10/02 06:40:56;;;;;;;18.58;3.00;;;14.10;99.90;;;;;;5089739;28;20373;-55
2022/10/02 06:43:27;;;;;;;13.63;2.50;;;14.20;99.90;;;;;;5088785;28;20469;-55
2022/10/02 06:46:11;;;;;;;10.30;2.50;;;14.20;99.90;;;;;;5089893;28;20483;-55
2022/10/02 06:48:54;;;;;;;9.75;2.28;;;14.20;99.90;;;;;;5089841;28;20378;-55
2022/10/02 06:51:38;;;;;;;12.32;2.80;;;14.30;99.90;;;;;;5071164;28;20445;-55
2022/10/02 06:54:17;;;;;;;8.98;2.47;;;14.40;99.90;;;;;;5092634;28;20843;-55
2022/10/02 06:57:12;;;;;;;8.98;2.50;;;14.60;99.90;;;;;;5093995;28;20443;-58
2022/10/02 07:00:02;;;;;;;15.07;5.47;;;14.70;99.90;;;;;;5085804;28;20458;-57
2022/10/02 07:02:47;;;;;;;13.10;3.83;;;14.80;99.90;;;;;;5072044;28;20570;-57
2022/10/02 07:05:21;;;;;;;17.00;7.65;;;14.90;99.90;;;;;;5072803;28;20412;-57
2022/10/02 07:07:56;;;;;;;13.68;5.40;;;14.70;99.90;;;;;;5073497;28;20845;-57
2022/10/02 07:10:39;;;;;;;15.50;5.60;;;14.70;99.90;;;;;;5072025;28;20748;-58
2022/10/02 07:13:29;;;;;;;8.55;2.72;;;14.80;99.90;;;;;;5074445;28;20399;-58
2022/10/02 07:16:07;;;;;;;12.00;3.45;;;14.80;99.90;;;;;;5075064;28;20386;-58
2022/10/02 07:18:36;;;;;;;7.93;2.50;;;15.00;99.90;;;;;;5093313;28;20481;-58
2022/10/02 07:21:23;;;;;;;9.27;3.00;;;15.00;99.90;;;;;;5093533;28;20839;-57
2022/10/02 07:24:11;;;;;;;9.23;2.50;;;15.10;99.90;;;;;;5093863;28;20449;-57
2022/10/02 07:26:46;;;;;;;10.38;2.78;;;15.00;99.90;;;;;;5046419;28;20964;-57
2022/10/02 07:29:35;;;;;;;7.60;2.40;;;15.00;99.90;;;;;;5092445;28;20390;-58
2022/10/02 07:32:29;;;;;;;10.80;2.72;;;15.00;99.90;;;;;;5093133;28;20736;-58
2022/10/02 07:35:20;;;;;;;9.50;2.38;;;14.90;99.90;;;;;;5093220;28;20386;-58
2022/10/02 07:37:54;;;;;;;10.20;2.60;;;14.70;99.90;;;;;;5092920;28;20385;-58
2022/10/02 07:40:41;;;;;;;7.60;2.33;;;14.60;99.90;;;;;;5092585;28;20374;-58
2022/10/02 07:43:22;;;;;;;10.20;3.13;;;14.60;99.90;;;;;;5088683;28;20543;-59
2022/10/02 07:45:55;;;;;;;8.48;2.92;;;14.60;99.90;;;;;;5082005;28;20391;-58
2022/10/02 07:48:43;;;;;;;9.30;2.70;;;14.50;99.90;;;;;;5072131;28;20399;-58
2022/10/02 07:51:45;;;;;;;7.15;2.70;;;14.60;99.90;;;;;;5071731;28;20426;-59
2022/10/02 07:54:47;;;;;;;9.97;2.67;;;14.50;99.90;;;;;;5072333;28;20896;-58
2022/10/02 07:57:35;;;;;;;10.80;3.30;;;14.50;99.90;;;;;;5071704;28;20412;-57
2022/10/02 08:00:15;;;;;;;8.52;2.88;;;14.60;99.90;;;;;;5072487;28;20380;-57
2022/10/02 08:02:49;;;;;;;6.60;2.70;;;14.60;99.90;;;;;;5071871;28;20395;-57
2022/10/02 08:05:22;;;;;;;7.30;2.77;;;14.60;99.90;;;;;;5071232;28;20383;-57
2022/10/02 08:07:50;;;;;;;7.57;2.33;;;14.60;99.90;;;;;;5072567;28;20410;-57
2022/10/02 08:10:21;;;;;;;11.43;3.00;;;14.50;99.90;;;;;;5071290;28;20399;-57
2022/10/02 08:12:51;;;;;;;7.70;2.70;;;14.70;99.90;;;;;;5072327;28;20418;-57
2022/10/02 08:15:19;;;;;;;7.50;2.20;;;14.70;99.90;;;;;;5089752;28;20455;-58
2022/10/02 08:18:12;;;;;;;9.00;2.00;;;14.60;99.90;;;;;;5092468;28;20370;-55
2022/10/02 08:20:42;;;;;;;7.05;2.03;;;14.60;99.90;;;;;;5091932;28;20378;-58
2022/10/02 08:23:20;;;;;;;5.60;1.70;;;14.80;99.90;;;;;;5091677;28;20380;-60
2022/10/02 08:25:51;;;;;;;6.90;2.30;;;14.90;99.90;;;;;;5091646;28;20386;-57
2022/10/02 08:28:24;;;;;;;6.85;1.60;;;14.80;99.90;;;;;;5090872;28;20393;-58
2022/10/02 08:30:50;;;;;;;9.45;2.00;;;14.80;99.90;;;;;;5091202;28;20402;-58
2022/10/02 08:33:21;;;;;;;6.22;1.60;;;15.00;99.90;;;;;;5091299;28;20393;-58
2022/10/02 08:36:19;;;;;;;9.73;3.70;;;14.90;99.90;;;;;;5091429;28;20747;-58
2022/10/02 08:38:50;;;;;;;9.75;3.17;;;14.80;99.90;;;;;;5089487;28;20373;-57
2022/10/02 08:41:57;;;;;;;7.85;2.40;;;14.90;99.90;;;;;;5090217;28;20434;-58
2022/10/02 08:45:01;;;;;;;5.55;1.75;;;14.90;99.90;;;;;;5087698;28;20838;-58
2022/10/02 08:48:05;;;;;;;6.47;2.33;;;14.90;99.90;;;;;;5081814;28;20429;-58
2022/10/02 08:50:48;;;;;;;7.13;1.50;;;15.10;99.90;;;;;;5090721;28;20394;-58
2022/10/02 08:53:37;;;;;;;7.40;1.40;;;15.50;99.90;;;;;;5083300;28;20506;-58
2022/10/02 08:56:16;;;;;;;6.03;1.70;;;15.60;99.90;;;;;;5089707;28;20390;-58
2022/10/02 08:59:19;;;;;;;5.70;1.50;;;15.80;99.90;;;;;;5084250;28;20492;-58
2022/10/02 09:02:26;;;;;;;4.60;1.20;;;16.40;99.90;;;;;;5084855;28;20488;-58
2022/10/02 09:05:19;;;;;;;4.50;1.00;;;16.50;1.00;;;;;;5080424;28;20399;-58
2022/10/02 09:08:07;;;;;;;5.05;1.00;;;16.60;1.00;;;;;;5080808;28;20394;-58
2022/10/02 09:11:03;;;;;;;5.60;2.10;;;16.70;1.00;;;;;;5084507;28;20388;-56
2022/10/02 09:13:47;;;;;;;8.98;1.40;;;16.70;1.00;;;;;;5086963;28;20758;-56
2022/10/02 09:16:50;;;;;;;6.30;1.80;;;16.70;1.00;;;;;;5082079;28;20399;-59
2022/10/02 09:19:53;;;;;;;5.95;1.90;;;16.40;10.00;;;;;;5074758;28;20734;-57
2022/10/02 09:22:46;;;;;;;6.32;1.90;;;16.30;55.90;;;;;;5076343;28;20461;-56
2022/10/02 09:25:59;;;;;;;6.97;1.80;;;16.00;99.90;;;;;;5081741;28;20849;-57
2022/10/02 09:28:58;;;;;;;7.90;2.20;;;15.50;99.90;;;;;;5070548;28;20413;-57
2022/10/02 09:31:49;;;;;;;7.13;2.33;;;15.40;99.90;;;;;;5085617;28;20422;-56
2022/10/02 09:34:57;;;;;;;6.40;2.10;;;15.30;99.90;;;;;;5084869;28;20401;-56
2022/10/02 09:38:04;;;;;;;6.25;2.20;;;15.40;99.90;;;;;;5067106;28;20486;-57
2022/10/02 09:40:59;;;;;;;7.03;2.30;;;15.50;99.90;;;;;;5017466;28;20578;-56
2022/10/02 09:43:33;;;;;;;5.80;1.98;;;15.40;99.90;;;;;;5076540;28;20410;-56
2022/10/02 09:46:07;;;;;;;6.00;2.00;;;15.30;99.90;;;;;;5077773;28;20461;-56
2022/10/02 09:49:10;;;;;;;7.20;2.55;;;15.10;99.90;;;;;;5081067;28;20410;-56
2022/10/02 09:52:03;;;;;;;8.02;2.80;;;15.10;99.90;;;;;;5079805;28;20402;-59
2022/10/02 09:54:48;;;;;;;6.17;2.27;;;15.10;99.90;;;;;;5078049;28;20411;-56
2022/10/02 09:57:45;;;;;;;14.60;6.18;;;15.20;99.90;;;;;;5078392;28;20398;-56
2022/10/02 10:00:19;;;;;;;10.77;4.90;;;15.10;99.90;;;;;;5075523;28;20433;-56
2022/10/02 10:03:17;;;;;;;14.18;5.53;;;15.30;99.90;;;;;;5079567;28;20414;-58
2022/10/02 10:06:27;;;;;;;10.60;5.20;;;15.50;99.90;;;;;;5082320;28;20622;-58
2022/10/02 10:09:10;;;;;;;6.63;2.10;;;15.40;99.90;;;;;;5078382;28;20632;-58
2022/10/02 10:11:41;;;;;;;7.30;2.40;;;15.40;99.90;;;;;;5076266;28;20402;-58
2022/10/02 10:14:36;;;;;;;6.05;2.40;;;15.50;99.90;;;;;;5084396;28;20824;-58
2022/10/02 10:17:38;;;;;;;5.63;1.80;;;16.20;99.90;;;;;;5051460;28;20946;-58
2022/10/02 10:20:50;;;;;;;6.80;2.20;;;15.40;99.90;;;;;;5102653;28;20388;-58
2022/10/02 10:23:59;;;;;;;6.10;2.20;;;15.60;99.90;;;;;;5102651;28;20450;-59
2022/10/02 10:26:26;;;;;;;5.72;2.00;;;16.10;99.90;;;;;;5020550;28;20421;-59
2022/10/02 10:29:03;;;;;;;5.53;1.83;;;16.30;99.90;;;;;;5026932;28;20475;-58
2022/10/02 10:31:49;;;;;;;5.93;2.08;;;16.30;99.90;;;;;;5062833;28;20437;-59
2022/10/02 10:34:17;;;;;;;5.10;1.80;;;16.30;99.90;;;;;;5088533;28;20916;-59
2022/10/02 10:40:10;;;;;;;7.10;2.40;;;15.90;99.90;;;;;;5079585;28;20394;-59
2022/10/02 10:43:19;;;;;;;6.13;2.00;;;15.80;99.90;;;;;;5087793;28;20413;-58
2022/10/02 10:46:06;;;;;;;5.60;2.15;;;15.80;99.90;;;;;;5076039;28;20895;-58
2022/10/02 10:48:44;;;;;;;6.40;1.60;;;15.80;99.90;;;;;;5077089;28;20378;-58
2022/10/02 10:51:34;;;;;;;5.80;1.50;;;15.70;99.90;;;;;;5081547;28;20910;-60
2022/10/02 10:54:24;;;;;;;4.40;1.20;;;15.70;99.90;;;;;;5079118;28;20771;-59
2022/10/02 10:56:59;;;;;;;5.40;1.70;;;15.90;99.90;;;;;;5081609;28;20378;-59
2022/10/02 10:59:52;;;;;;;7.00;1.50;;;15.90;99.90;;;;;;5072576;28;20836;-59
2022/10/02 11:02:56;;;;;;;6.00;2.50;;;16.00;99.90;;;;;;5077021;28;20410;-59
2022/10/02 11:05:52;;;;;;;5.32;1.75;;;16.20;99.90;;;;;;5077511;28;20844;-59
2022/10/02 11:08:54;;;;;;;6.85;2.72;;;16.30;99.90;;;;;;5083733;28;20801;-58
2022/10/02 11:11:31;;;;;;;6.30;1.70;;;16.40;99.90;;;;;;5094417;28;20408;-58
2022/10/02 11:14:05;;;;;;;8.90;3.05;;;16.20;85.10;;;;;;5096196;28;20377;-58
2022/10/02 11:16:36;;;;;;;6.63;2.35;;;16.00;99.90;;;;;;5070155;28;20388;-58
2022/10/02 11:19:43;;;;;;;11.25;3.20;;;15.90;99.90;;;;;;5069069;28;20384;-59
2022/10/02 11:22:27;;;;;;;13.88;4.07;;;15.80;99.90;;;;;;5078113;28;20386;-58
2022/10/02 11:25:18;;;;;;;8.93;2.65;;;15.40;99.90;;;;;;5089992;28;20592;-58
2022/10/02 11:27:46;;;;;;;5.20;1.40;;;15.70;99.90;;;;;;5094190;28;20912;-58
2022/10/02 11:30:22;;;;;;;6.45;2.58;;;15.70;99.90;;;;;;5088691;28;20386;-59
2022/10/02 11:32:50;;;;;;;8.60;2.80;;;15.70;99.90;;;;;;5089251;28;20433;-59
2022/10/02 11:35:55;;;;;;;6.97;1.83;;;15.80;99.90;;;;;;5083170;28;20399;-59
2022/10/02 11:39:11;;;;;;;5.50;1.40;;;15.60;99.90;;;;;;5081723;28;20730;-58
2022/10/02 11:41:44;;;;;;;4.38;1.20;;;15.60;99.90;;;;;;5011257;28;20424;-58
2022/10/02 11:44:31;;;;;;;3.90;0.90;;;15.60;99.90;;;;;;5076436;28;20400;-58
2022/10/02 11:47:29;;;;;;;16.30;8.60;;;15.50;99.90;;;;;;5076424;28;20402;-58
2022/10/02 11:50:31;;;;;;;16.67;8.67;;;15.70;99.90;;;;;;5038614;28;20415;-58
2022/10/02 11:53:16;;;;;;;4.90;1.73;;;15.80;99.90;;;;;;5081326;28;20404;-58
2022/10/02 11:55:49;;;;;;;5.40;1.80;;;15.80;99.90;;;;;;5073346;28;20420;-59
2022/10/02 11:58:50;;;;;;;6.13;2.58;;;15.60;99.90;;;;;;5072327;28;20392;-60
2022/10/02 12:01:38;;;;;;;5.70;2.00;;;15.70;99.90;;;;;;5080447;28;20424;-62
2022/10/02 12:04:44;;;;;;;6.60;2.20;;;15.50;99.90;;;;;;5091624;28;20422;-59
2022/10/02 12:07:25;;;;;;;7.40;3.80;;;15.70;99.90;;;;;;5048248;28;20505;-60
2022/10/02 12:10:15;;;;;;;6.82;3.10;;;15.80;99.90;;;;;;5088665;28;20382;-59
2022/10/02 12:12:53;;;;;;;5.70;2.60;;;15.80;99.90;;;;;;5090289;28;20515;-58
2022/10/02 12:15:36;;;;;;;5.68;2.30;;;15.80;99.90;;;;;;5089502;28;20908;-59
2022/10/02 12:18:27;;;;;;;6.78;2.50;;;15.80;99.90;;;;;;5081338;28;20918;-58
2022/10/02 12:27:14;;;;;;;6.55;2.60;;;15.90;99.90;;;;;;5082804;28;20527;-58
2022/10/02 12:29:45;;;;;;;6.40;2.40;;;15.90;99.90;;;;;;5090981;28;20866;-57
2022/10/02 12:32:55;;;;;;;7.20;2.10;;;15.90;99.90;;;;;;5085638;28;20428;-60
2022/10/02 12:35:48;;;;;;;6.20;2.13;;;15.90;99.90;;;;;;5089882;28;20461;-58
2022/10/02 12:38:34;;;;;;;5.63;2.05;;;15.90;99.90;;;;;;5090391;28;20398;-58
2022/10/02 12:41:34;;;;;;;6.57;2.80;;;15.80;99.90;;;;;;5091163;28;20385;-58
2022/10/02 12:44:26;;;;;;;5.30;1.60;;;15.70;99.90;;;;;;5087716;28;20377;-59
2022/10/02 12:47:11;;;;;;;7.90;2.80;;;15.60;99.90;;;;;;5085190;28;20394;-58
2022/10/02 12:49:50;;;;;;;7.55;3.00;;;15.40;99.90;;;;;;5084587;28;20408;-58
2022/10/02 12:52:34;;;;;;;11.15;5.00;;;15.40;99.90;;;;;;5076354;28;20413;-58
2022/10/02 12:55:21;;;;;;;18.95;9.02;;;15.50;99.90;;;;;;5083036;28;20483;-58
2022/10/02 12:58:01;;;;;;;6.88;2.80;;;15.50;99.90;;;;;;5081950;28;20407;-58
2022/10/02 13:01:03;;;;;;;7.30;3.00;;;15.50;99.90;;;;;;5093692;28;20871;-59
2022/10/02 13:04:15;;;;;;;13.00;7.57;;;15.40;99.90;;;;;;5087119;28;20434;-58
2022/10/02 13:07:00;;;;;;;83.85;52.60;;;15.40;99.90;;;;;;5010137;28;20407;-60
2022/10/02 13:09:44;;;;;;;27.67;18.80;;;15.40;99.90;;;;;;5067081;28;20445;-61
2022/10/02 13:12:31;;;;;;;18.50;9.93;;;15.40;99.90;;;;;;5092329;28;20891;-63
2022/10/02 13:15:37;;;;;;;9.20;3.00;;;15.40;99.90;;;;;;5074255;28;20381;-62
2022/10/02 13:18:09;;;;;;;13.68;5.97;;;13.90;99.90;;;;;;5048774;28;20424;-61
2022/10/02 13:20:45;;;;;;;6.70;2.60;;;15.20;99.90;;;;;;5098157;28;20496;-60
2022/10/02 13:23:23;;;;;;;6.88;2.22;;;15.10;99.90;;;;;;5086731;28;20399;-60
2022/10/02 13:25:58;;;;;;;4.43;1.37;;;15.10;99.90;;;;;;5084419;28;20387;-60
2022/10/02 13:28:58;;;;;;;4.80;1.20;;;15.10;99.90;;;;;;5087959;28;20796;-60
2022/10/02 13:31:35;;;;;;;4.90;1.50;;;15.10;99.90;;;;;;5090874;28;20426;-60
2022/10/02 13:34:25;;;;;;;6.00;1.80;;;15.20;99.90;;;;;;5084347;28;20394;-61
2022/10/02 13:36:50;;;;;;;6.18;2.45;;;15.10;99.90;;;;;;5096762;28;20376;-60
2022/10/02 13:39:37;;;;;;;4.30;1.00;;;15.10;99.90;;;;;;5087894;28;20413;-60
2022/10/02 13:42:35;;;;;;;4.50;1.10;;;15.10;99.90;;;;;;5085758;28;20752;-58
2022/10/02 13:45:04;;;;;;;5.10;2.05;;;15.00;99.90;;;;;;5084752;28;20408;-58
2022/10/02 13:47:46;;;;;;;6.13;1.85;;;14.90;99.90;;;;;;5082196;28;20398;-58
2022/10/02 13:50:22;;;;;;;6.30;2.10;;;15.00;99.90;;;;;;5085614;28;20399;-57
2022/10/02 13:53:02;;;;;;;8.00;4.10;;;15.20;99.90;;;;;;5074602;28;20408;-58
2022/10/02 13:55:33;;;;;;;19.27;13.70;;;15.30;99.90;;;;;;5069616;28;20451;-58
2022/10/02 13:58:10;;;;;;;26.17;14.45;;;15.20;99.90;;;;;;5070809;28;20445;-57
2022/10/02 14:00:36;;;;;;;5.70;1.60;;;15.40;99.90;;;;;;5071405;28;20491;-57
2022/10/02 14:03:01;;;;;;;8.73;3.40;;;15.50;99.90;;;;;;5070706;28;20808;-57
2022/10/02 14:05:36;;;;;;;4.30;1.10;;;15.40;99.90;;;;;;5071067;28;20466;-58
2022/10/02 14:08:42;;;;;;;6.60;2.30;;;15.30;99.90;;;;;;5070110;28;20380;-57
2022/10/02 14:11:27;;;;;;;6.22;1.80;;;15.30;99.90;;;;;;5061546;28;20908;-57